Terminal Aerodrome Forecast
Issued by NWS Shreveport, LA

Home | Current Version | Previous Version | Text Only | Print | Product List | Glossary On
Versions: 1 2 3 4 5 6 7 8 9 10 11 12 13 14 15 16 17 18 19 20 21 22 23 24
000
FTUS44 KSHV 240500
TAFELD
TAF
KELD 240526Z 2406/2506 12005KT P6SM FEW250
     FM241200 15004KT P6SM SCT050 BKN250
     FM241500 19014G22KT P6SM BKN040
     FM242100 20015G24KT P6SM VCTS BKN040CB
     FM250300 30007KT P6SM FEW035=

USA.gov is the U.S. government's official web portal to all federal, state and local government web resources and services.